createdAt,value
2023-03-17T00:07:10.890Z,21.3
2023-03-17T00:18:40.116Z,21.2
2023-03-17T00:24:32.827Z,21.2
2023-03-17T00:41:24.514Z,21.1
2023-03-17T00:47:01.365Z,21.1
2023-03-17T00:52:53.576Z,21
2023-03-17T01:04:24.980Z,20.9
2023-03-17T01:21:40.595Z,20.9
2023-03-17T01:27:32.285Z,20.9
2023-03-17T01:44:25.294Z,20.8
2023-03-17T01:50:19.440Z,20.8
2023-03-17T01:56:11.441Z,20.8
2023-03-17T02:07:07.531Z,20.8
2023-03-17T02:13:00.481Z,20.8
2023-03-17T02:18:52.919Z,20.8
2023-03-17T02:29:52.022Z,20.8
2023-03-17T02:46:44.895Z,20.6
2023-03-17T02:52:20.893Z,20.6
2023-03-17T03:03:51.885Z,20.6
2023-03-17T03:09:44.218Z,20.6
2023-03-17T03:15:37.953Z,20.6
2023-03-17T03:21:31.119Z,20.6
2023-03-17T03:27:22.327Z,20.6
2023-03-17T03:38:53.102Z,20.6
2023-03-17T03:44:28.130Z,20.6
2023-03-17T03:50:05.896Z,20.5
2023-03-17T03:55:57.452Z,20.5
2023-03-17T04:01:35.357Z,20.5
2023-03-17T04:07:14.461Z,20.5
2023-03-17T04:13:05.668Z,20.5
2023-03-17T04:18:58.619Z,20.5
2023-03-17T04:24:51.822Z,20.4
2023-03-17T04:30:46.765Z,20.4
2023-03-17T04:36:25.264Z,20.4
2023-03-17T04:42:21.059Z,20.4
2023-03-17T04:47:58.738Z,20.4
2023-03-17T04:59:46.899Z,20.4
2023-03-17T05:06:07.160Z,20.4
2023-03-17T05:11:46.017Z,20.4
2023-03-17T05:17:39.054Z,20.4
2023-03-17T05:23:31.133Z,20.4
2023-03-17T05:29:23.201Z,20.4
2023-03-17T05:35:17.762Z,20.4
2023-03-17T05:41:11.617Z,20.4
2023-03-17T05:47:04.599Z,20.4
2023-03-17T05:52:59.700Z,20.4
2023-03-17T05:58:36.596Z,20.4
2023-03-17T06:04:29.599Z,20.4
2023-03-17T06:10:22.275Z,20.4
2023-03-17T06:16:14.518Z,20.3
2023-03-17T06:22:06.631Z,20
2023-03-17T06:28:09.037Z,20.1
2023-03-17T06:34:15.594Z,20.3
2023-03-17T06:40:08.441Z,20.3
2023-03-17T06:46:03.448Z,20.4
2023-03-17T06:51:55.679Z,20.4
2023-03-17T06:58:07.790Z,20.4
2023-03-17T07:04:00.040Z,20.4
2023-03-17T07:09:52.407Z,20.4
2023-03-17T07:15:44.982Z,20.4
2023-03-17T07:21:38.847Z,20.5
2023-03-17T07:27:31.415Z,20.4
2023-03-17T07:32:53.344Z,20.5
2023-03-17T07:38:31.710Z,20.5
2023-03-17T07:44:23.813Z,20.4
2023-03-17T07:50:30.330Z,20.5
2023-03-17T07:56:27.093Z,20.5
2023-03-17T08:02:19.852Z,20.5
2023-03-17T08:08:28.051Z,20.5
2023-03-17T08:14:21.214Z,20.5
2023-03-17T08:20:15.025Z,20.5
2023-03-17T08:26:09.123Z,20.5
2023-03-17T08:32:06.042Z,20.5
2023-03-17T08:37:45.747Z,20.5
2023-03-17T08:43:39.067Z,20.5
2023-03-17T08:49:16.731Z,20.5
2023-03-17T08:54:54.177Z,20.5
2023-03-17T09:00:47.524Z,20.6
2023-03-17T09:07:01.655Z,20.5
2023-03-17T09:12:56.170Z,20.5
2023-03-17T09:18:45.494Z,20.5
2023-03-17T09:24:39.331Z,20.5
2023-03-17T09:30:33.110Z,20.5
2023-03-17T09:36:14.787Z,20.6
2023-03-17T09:41:53.452Z,20.6
2023-03-17T09:47:46.566Z,20.6
2023-03-17T09:53:41.038Z,20.5
2023-03-17T09:59:33.564Z,20.5
2023-03-17T10:05:26.547Z,20.5
2023-03-17T10:11:32.225Z,20.5
2023-03-17T10:17:26.266Z,20.5
2023-03-17T10:28:44.330Z,20.5
2023-03-17T10:34:38.520Z,20.4
2023-03-17T10:40:41.571Z,20.5
2023-03-17T10:46:34.962Z,20.4
2023-03-17T10:52:28.700Z,20.4
2023-03-17T10:58:21.668Z,20.4
2023-03-17T11:04:15.317Z,20.4
2023-03-17T11:10:09.387Z,20.4
2023-03-17T11:16:01.224Z,20.4
2023-03-17T11:21:53.705Z,20.4
2023-03-17T11:33:09.778Z,20.5
2023-03-17T11:39:02.312Z,20.5
2023-03-17T11:44:55.603Z,20.6
2023-03-17T11:50:48.516Z,20.6
2023-03-17T11:56:41.151Z,20.6
2023-03-17T12:02:34.079Z,20.6
2023-03-17T12:08:27.479Z,20.6
2023-03-17T12:14:19.706Z,20.6
2023-03-17T12:20:15.020Z,20.6
2023-03-17T12:26:07.893Z,20.6
2023-03-17T12:31:45.002Z,20.6
2023-03-17T12:37:42.360Z,20.7
2023-03-17T12:43:35.674Z,20.8
2023-03-17T12:49:29.819Z,20.8
2023-03-17T12:55:22.768Z,20.8
2023-03-17T13:01:15.162Z,20.9
2023-03-17T13:07:12.965Z,20.9
2023-03-17T13:13:06.350Z,20.9
2023-03-17T13:18:44.178Z,20.9
2023-03-17T13:24:39.037Z,20.9
2023-03-17T13:30:37.060Z,20.9
2023-03-17T13:36:30.667Z,21
2023-03-17T13:42:50.530Z,20.9
2023-03-17T13:48:47.815Z,20.9
2023-03-17T13:54:45.978Z,20.9
2023-03-17T14:00:39.851Z,20.9
2023-03-17T14:06:34.294Z,20.9
2023-03-17T14:12:27.150Z,20.9
2023-03-17T14:18:13.920Z,20.9
2023-03-17T14:24:11.646Z,20.9
2023-03-17T14:30:06.684Z,20.9
2023-03-17T14:41:38.361Z,20.9
2023-03-17T14:47:30.980Z,20.9
2023-03-17T14:53:23.150Z,20.9
2023-03-17T14:59:17.548Z,20.9
2023-03-17T15:05:12.163Z,20.9
2023-03-17T15:11:07.231Z,20.9
2023-03-17T15:17:00.656Z,20.9
2023-03-17T15:22:53.910Z,20.9
2023-03-17T15:28:47.065Z,20.9
2023-03-17T15:34:47.952Z,20.9
2023-03-17T15:40:47.655Z,20.9
2023-03-17T15:46:40.337Z,20.9
2023-03-17T15:52:33.413Z,21
2023-03-17T15:58:28.708Z,20.9
2023-03-17T16:04:20.707Z,20.9
2023-03-17T16:10:13.820Z,20.9
2023-03-17T16:16:22.654Z,20.9
2023-03-17T16:22:15.016Z,20.9
2023-03-17T16:28:19.561Z,20.9
2023-03-17T16:33:56.309Z,20.9
2023-03-17T16:39:48.582Z,20.9
2023-03-17T16:45:53.325Z,21
2023-03-17T16:51:46.049Z,21
2023-03-17T16:57:24.591Z,21.1
2023-03-17T17:19:53.514Z,21.3
2023-03-17T17:30:39.288Z,21.5
2023-03-17T17:36:32.646Z,21.6
2023-03-17T17:42:25.882Z,21.6
2023-03-17T17:53:59.057Z,21.8
2023-03-17T17:59:35.647Z,21.9
2023-03-17T18:10:35.085Z,21.6
2023-03-17T18:16:12.194Z,21.4
2023-03-17T18:22:03.975Z,21.4
2023-03-17T18:27:57.888Z,21.7
2023-03-17T18:39:13.138Z,22.1
2023-03-17T18:50:26.925Z,22.3
2023-03-17T18:56:19.359Z,22.3
2023-03-17T19:02:13.757Z,22.4
2023-03-17T19:13:28.518Z,22.5
2023-03-17T19:19:21.116Z,22.6
2023-03-17T19:24:57.147Z,22.6
2023-03-17T19:30:34.768Z,22.7
2023-03-17T19:36:28.702Z,22.7
2023-03-17T19:41:51.875Z,22.7
2023-03-17T19:47:24.073Z,22.7
2023-03-17T19:52:47.050Z,22.7
2023-03-17T19:58:23.557Z,22.7
2023-03-17T20:04:16.768Z,22.8
2023-03-17T20:10:10.344Z,22.8
2023-03-17T20:31:56.465Z,22.9
2023-03-17T20:37:51.673Z,22.9
2023-03-17T20:43:44.392Z,22.9
2023-03-17T20:49:36.915Z,22.9
2023-03-17T20:55:32.642Z,23
2023-03-17T21:01:25.953Z,23
2023-03-17T21:07:18.759Z,23
2023-03-17T21:13:11.814Z,22.9
2023-03-17T21:18:50.212Z,22.9
2023-03-17T21:35:45.389Z,22.9
2023-03-17T21:41:41.070Z,22.8
2023-03-17T21:47:33.780Z,22.8
2023-03-17T21:53:27.407Z,22.8
2023-03-17T22:10:28.991Z,22.6
2023-03-17T22:21:16.955Z,22.6
2023-03-17T22:27:10.284Z,22.5
2023-03-17T22:33:03.874Z,22.4
2023-03-17T22:38:57.953Z,22.4
2023-03-17T22:44:36.633Z,22.4
2023-03-17T22:55:53.465Z,22.2
2023-03-17T23:01:46.784Z,22.2
2023-03-17T23:07:23.120Z,22.1
2023-03-17T23:13:26.159Z,22.1
2023-03-17T23:19:20.143Z,22
2023-03-17T23:25:11.879Z,21.9
2023-03-17T23:31:05.578Z,21.9
2023-03-17T23:36:43.923Z,21.8
2023-03-17T23:42:21.744Z,21.8
2023-03-17T23:48:14.986Z,21.8
2023-03-17T23:53:37.479Z,21.8
2023-03-17T23:59:29.108Z,21.7
